createdAt,value
2018-02-01T00:04:13.729Z,7.20
2018-02-01T00:07:01.392Z,5.53
2018-02-01T00:26:09.828Z,5.30
2018-02-01T00:28:57.014Z,6.10
2018-02-01T00:31:44.354Z,4.03
2018-02-01T00:34:33.548Z,5.70
2018-02-01T00:37:20.725Z,5.00
2018-02-01T00:40:08.186Z,5.60
2018-02-01T00:42:56.469Z,6.60
2018-02-01T00:45:43.965Z,7.07
2018-02-01T00:48:31.664Z,5.80
2018-02-01T00:51:18.901Z,5.57
2018-02-01T00:54:07.332Z,4.97
2018-02-01T00:56:54.533Z,4.90
2018-02-01T00:59:42.035Z,5.70
2018-02-01T01:25:14.606Z,6.70
2018-02-01T01:28:01.708Z,5.87
2018-02-01T01:30:49.865Z,5.50
2018-02-01T01:33:37.001Z,5.63
2018-02-01T01:36:24.314Z,4.80
2018-02-01T01:39:11.867Z,5.53
2018-02-01T01:41:59.138Z,5.33
2018-02-01T01:51:53.132Z,5.47
2018-02-01T01:54:40.799Z,5.10
2018-02-01T01:57:28.127Z,6.60
2018-02-01T02:00:16.466Z,6.03
2018-02-01T02:03:03.779Z,5.43
2018-02-01T02:05:52.041Z,5.00
2018-02-01T02:08:40.149Z,5.30
2018-02-01T02:11:27.499Z,5.60
2018-02-01T02:14:14.921Z,7.47
2018-02-01T02:17:03.136Z,7.10
2018-02-01T02:19:50.418Z,6.83
2018-02-01T02:22:37.902Z,6.30
2018-02-01T02:25:25.188Z,8.70
2018-02-01T02:28:12.618Z,7.37
2018-02-01T02:30:59.876Z,7.60
2018-02-01T02:33:47.672Z,6.77
2018-02-01T02:36:36.180Z,6.47
2018-02-01T02:39:24.327Z,6.00
2018-02-01T02:42:11.764Z,7.82
2018-02-01T02:44:59.765Z,6.60
2018-02-01T02:47:47.174Z,6.47
2018-02-01T02:50:34.536Z,6.47
2018-02-01T02:53:21.732Z,5.90
2018-02-01T02:56:08.940Z,6.73
2018-02-01T02:58:56.237Z,6.33
2018-02-01T03:01:43.772Z,6.07
2018-02-01T03:04:32.448Z,6.45
2018-02-01T03:07:19.989Z,6.10
2018-02-01T03:10:07.519Z,6.10
2018-02-01T03:12:54.876Z,5.43
2018-02-01T03:15:42.046Z,5.67
2018-02-01T03:18:29.473Z,6.57
2018-02-01T03:21:16.902Z,5.40
2018-02-01T03:24:04.227Z,5.87
2018-02-01T03:26:51.557Z,6.30
2018-02-01T03:29:38.676Z,5.47
2018-02-01T03:32:25.993Z,6.43
2018-02-01T03:58:03.366Z,5.60
2018-02-01T04:00:50.638Z,5.80
2018-02-01T04:03:38.830Z,5.80
2018-02-01T04:06:26.776Z,5.00
2018-02-01T04:25:36.290Z,5.93
2018-02-01T04:51:08.630Z,6.37
2018-02-01T04:53:55.836Z,6.83
2018-02-01T05:12:59.203Z,6.55
2018-02-01T05:15:47.125Z,7.67
2018-02-01T05:18:34.389Z,8.50
2018-02-01T05:21:21.734Z,8.70
2018-02-01T05:24:08.961Z,6.83
2018-02-01T05:26:56.136Z,8.50
2018-02-01T05:29:44.144Z,7.10
2018-02-01T05:32:31.696Z,7.00
2018-02-01T05:35:19.354Z,6.80
2018-02-01T05:38:06.980Z,6.40
2018-02-01T05:40:54.360Z,5.87
2018-02-01T05:43:41.917Z,5.93
2018-02-01T05:46:29.893Z,6.73
2018-02-01T05:49:17.220Z,6.00
2018-02-01T05:52:04.552Z,6.40
2018-02-01T05:54:51.777Z,7.27
2018-02-01T05:57:39.034Z,6.47
2018-02-01T06:00:27.167Z,6.67
2018-02-01T06:03:14.422Z,6.80
2018-02-01T06:06:02.020Z,6.90
2018-02-01T06:08:49.229Z,7.20
2018-02-01T06:11:36.592Z,6.47
2018-02-01T06:14:23.868Z,6.27
2018-02-01T06:17:12.245Z,7.57
2018-02-01T06:20:00.186Z,6.03
2018-02-01T06:22:47.325Z,6.83
2018-02-01T06:25:34.704Z,6.90
2018-02-01T06:28:21.808Z,6.30
2018-02-01T06:31:08.922Z,7.17
2018-02-01T06:33:56.865Z,6.20
2018-02-01T06:36:44.984Z,6.73
2018-02-01T06:39:32.979Z,6.80
2018-02-01T06:42:20.253Z,6.23
2018-02-01T06:45:08.203Z,6.10
2018-02-01T06:47:55.429Z,6.60
2018-02-01T06:50:43.243Z,6.63
2018-02-01T06:53:30.885Z,7.07
2018-02-01T06:56:19.337Z,5.60
2018-02-01T06:59:07.341Z,6.40
2018-02-01T07:01:54.603Z,6.20
2018-02-01T07:04:42.067Z,6.17
2018-02-01T07:07:29.358Z,6.73
2018-02-01T07:10:17.290Z,6.40
2018-02-01T07:13:04.525Z,5.37
2018-02-01T07:15:52.486Z,6.23
2018-02-01T07:18:39.660Z,6.07
2018-02-01T07:21:27.002Z,6.10
2018-02-01T07:24:14.873Z,7.60
2018-02-01T07:27:02.883Z,5.63
2018-02-01T07:52:45.333Z,5.63
2018-02-01T08:18:17.483Z,6.43
2018-02-01T08:21:04.693Z,5.90
2018-02-01T08:23:52.953Z,5.87
2018-02-01T08:26:41.674Z,5.77
2018-02-01T08:29:29.267Z,6.53
2018-02-01T08:32:18.142Z,6.00
2018-02-01T08:35:05.418Z,5.67
2018-02-01T08:37:52.652Z,5.53
2018-02-01T08:40:39.965Z,7.23
2018-02-01T08:43:27.136Z,6.10
2018-02-01T08:46:14.965Z,5.83
2018-02-01T08:49:03.010Z,5.57
2018-02-01T08:51:50.404Z,7.20
2018-02-01T09:17:28.594Z,4.70
2018-02-01T09:20:16.976Z,6.27
2018-02-01T09:23:04.159Z,6.33
2018-02-01T09:25:51.250Z,5.87
2018-02-01T09:28:39.528Z,5.37
2018-02-01T09:31:26.949Z,6.57
2018-02-01T09:34:15.038Z,6.20
2018-02-01T09:37:02.581Z,6.13
2018-02-01T09:39:50.138Z,6.00
2018-02-01T09:42:37.282Z,5.37
2018-02-01T09:45:24.535Z,5.80
2018-02-01T09:48:12.456Z,5.60
2018-02-01T09:51:00.599Z,6.20
2018-02-01T09:53:48.590Z,6.40
2018-02-01T09:56:36.837Z,5.17
2018-02-01T10:22:19.563Z,7.83
2018-02-01T10:25:06.921Z,6.40
2018-02-01T10:27:54.263Z,6.53
2018-02-01T10:30:41.382Z,7.50
2018-02-01T10:33:28.781Z,5.70
2018-02-01T10:36:16.385Z,6.73
2018-02-01T10:39:03.626Z,6.00
2018-02-01T10:41:51.234Z,6.97
2018-02-01T11:07:23.552Z,7.40
2018-02-01T11:10:11.811Z,7.57
2018-02-01T11:13:00.646Z,7.93
2018-02-01T11:15:48.824Z,7.27
2018-02-01T11:18:36.340Z,7.85
2018-02-01T11:21:24.367Z,6.07
2018-02-01T11:24:11.884Z,6.77
2018-02-01T11:26:59.069Z,8.03
2018-02-01T11:29:47.150Z,8.60
2018-02-01T11:32:34.459Z,9.23
2018-02-01T11:35:21.847Z,8.37
2018-02-01T11:38:08.996Z,6.60
2018-02-01T11:40:57.100Z,7.00
2018-02-01T11:43:44.302Z,6.77
2018-02-01T11:46:31.773Z,7.30
2018-02-01T11:49:19.019Z,6.90
2018-02-01T11:52:06.359Z,6.30
2018-02-01T11:54:54.234Z,6.00
2018-02-01T11:57:41.500Z,12.50
2018-02-01T12:00:29.721Z,6.90
2018-02-01T12:03:17.038Z,5.50
2018-02-01T12:06:04.589Z,7.32
2018-02-01T12:08:51.895Z,5.47
2018-02-01T12:11:39.077Z,5.67
2018-02-01T12:14:27.511Z,5.10
2018-02-01T12:17:14.761Z,4.30
2018-02-01T12:20:02.028Z,4.03
2018-02-01T12:22:49.874Z,2.80
2018-02-01T12:25:37.303Z,3.03
2018-02-01T12:28:24.545Z,2.90
2018-02-01T12:31:12.235Z,2.63
2018-02-01T12:33:59.535Z,5.00
2018-02-01T12:36:46.963Z,5.40
2018-02-01T12:39:34.984Z,5.70
2018-02-01T12:42:23.067Z,5.17
2018-02-01T12:45:10.262Z,4.90
2018-02-01T12:47:57.572Z,7.57
2018-02-01T12:50:44.804Z,6.77
2018-02-01T12:53:31.998Z,6.77
2018-02-01T12:56:20.035Z,5.77
2018-02-01T12:59:07.248Z,5.97
2018-02-01T13:01:54.439Z,5.47
2018-02-01T13:04:41.750Z,5.60
2018-02-01T13:07:29.001Z,6.50
2018-02-01T13:10:16.313Z,5.40
2018-02-01T13:13:03.489Z,6.53
2018-02-01T13:15:51.408Z,7.13
2018-02-01T13:18:38.730Z,5.93
2018-02-01T13:21:26.033Z,8.23
2018-02-01T13:24:13.423Z,9.20
2018-02-01T13:27:02.382Z,8.20
2018-02-01T13:29:49.735Z,8.47
2018-02-01T13:32:37.905Z,9.07
2018-02-01T13:35:25.277Z,6.63
2018-02-01T13:38:12.600Z,8.80
2018-02-01T13:41:00.482Z,8.37
2018-02-01T13:43:47.856Z,10.40
2018-02-01T13:46:35.019Z,9.70
2018-02-01T14:05:43.055Z,9.67
2018-02-01T14:08:31.164Z,10.20
2018-02-01T14:34:08.554Z,8.27
2018-02-01T14:36:56.606Z,8.80
2018-02-01T14:39:43.954Z,8.50
2018-02-01T14:42:31.944Z,8.50
2018-02-01T14:45:19.222Z,8.83
2018-02-01T14:48:07.107Z,7.50
2018-02-01T14:50:54.258Z,10.17
2018-02-01T14:53:41.424Z,9.70
2018-02-01T14:56:28.672Z,8.80
2018-02-01T14:59:15.847Z,8.57
2018-02-01T15:02:03.936Z,8.90
2018-02-01T15:04:51.210Z,7.57
2018-02-01T15:07:38.657Z,9.20
2018-02-01T15:10:26.058Z,8.27
2018-02-01T15:13:14.095Z,8.50
2018-02-01T15:16:02.411Z,8.80
2018-02-01T15:18:49.646Z,8.47
2018-02-01T15:21:37.021Z,7.17
2018-02-01T15:24:25.125Z,7.60
2018-02-01T15:27:12.498Z,8.10
2018-02-01T15:30:00.491Z,8.13
2018-02-01T15:32:47.746Z,9.10
2018-02-01T15:35:36.014Z,7.87
2018-02-01T15:38:23.357Z,7.40
2018-02-01T15:41:10.696Z,7.47
2018-02-01T15:43:58.126Z,7.20
2018-02-01T15:46:45.969Z,7.60
2018-02-01T15:49:33.196Z,7.53
2018-02-01T15:52:21.345Z,6.47
2018-02-01T15:55:09.226Z,8.77
2018-02-01T15:58:04.299Z,8.00
2018-02-01T16:00:51.613Z,8.37
2018-02-01T16:03:38.915Z,7.23
2018-02-01T16:06:26.290Z,7.70
2018-02-01T16:09:14.302Z,7.23
2018-02-01T16:12:01.460Z,8.00
2018-02-01T16:14:49.617Z,8.07
2018-02-01T16:17:37.570Z,6.80
2018-02-01T16:20:25.605Z,6.73
2018-02-01T16:23:12.865Z,7.13
2018-02-01T16:26:01.024Z,7.70
2018-02-01T16:28:48.197Z,7.20
2018-02-01T16:31:35.742Z,7.20
2018-02-01T16:34:23.011Z,6.33
2018-02-01T16:37:10.787Z,6.37
2018-02-01T17:02:47.938Z,5.60
2018-02-01T17:05:35.167Z,5.77
2018-02-01T17:24:47.520Z,5.77
2018-02-01T17:27:34.665Z,6.10
2018-02-01T17:30:21.856Z,5.60
2018-02-01T17:33:09.242Z,5.00
2018-02-01T17:35:57.278Z,4.30
2018-02-01T17:38:44.706Z,5.23
2018-02-01T17:41:32.151Z,5.30
2018-02-01T17:44:19.541Z,5.50
2018-02-01T17:47:06.975Z,5.13
2018-02-01T17:49:54.272Z,4.60
2018-02-01T17:52:41.543Z,5.40
2018-02-01T17:55:28.832Z,5.10
2018-02-01T17:58:16.181Z,4.80
2018-02-01T18:01:03.396Z,3.87
2018-02-01T18:03:50.868Z,4.43
2018-02-01T18:09:43.425Z,4.70
2018-02-01T18:12:31.416Z,4.60
2018-02-01T18:15:18.691Z,4.90
2018-02-01T18:18:06.117Z,4.93
2018-02-01T18:20:54.058Z,5.20
2018-02-01T18:23:41.465Z,6.00
2018-02-01T18:26:28.820Z,6.13
2018-02-01T18:29:16.013Z,4.80
2018-02-01T18:32:03.433Z,5.87
2018-02-01T18:34:50.744Z,5.10
2018-02-01T18:37:38.123Z,7.03
2018-02-01T18:40:25.612Z,5.93
2018-02-01T18:43:12.794Z,5.40
2018-02-01T18:46:00.017Z,4.73
2018-02-01T18:48:48.356Z,5.87
2018-02-01T18:51:35.576Z,5.00
2018-02-01T19:10:42.848Z,4.87
2018-02-01T19:13:30.049Z,4.97
2018-02-01T19:16:17.432Z,4.40
2018-02-01T19:19:04.738Z,5.27
2018-02-01T19:21:52.132Z,5.10
2018-02-01T19:24:40.518Z,5.90
2018-02-01T19:27:28.421Z,5.27
2018-02-01T19:30:15.902Z,5.30
2018-02-01T19:33:03.195Z,5.50
2018-02-01T19:35:51.280Z,5.10
2018-02-01T19:38:38.601Z,4.67
2018-02-01T19:41:27.596Z,4.43
2018-02-01T19:44:14.808Z,4.70
2018-02-01T19:47:02.065Z,5.70
2018-02-01T19:49:49.428Z,5.30
2018-02-01T19:52:36.625Z,4.30
2018-02-01T19:55:24.732Z,6.00
2018-02-01T19:58:11.898Z,4.63
2018-02-01T20:01:00.056Z,5.63
2018-02-01T20:03:48.470Z,4.80
2018-02-01T20:06:35.667Z,5.60
2018-02-01T20:09:22.993Z,5.47
2018-02-01T20:12:10.264Z,5.47
2018-02-01T20:14:57.446Z,4.33
2018-02-01T20:17:44.697Z,5.03
2018-02-01T20:20:31.969Z,6.30
2018-02-01T20:23:19.400Z,4.80
2018-02-01T20:26:06.616Z,5.10
2018-02-01T20:28:53.915Z,5.03
2018-02-01T20:31:41.143Z,4.90
2018-02-01T20:34:29.069Z,5.23
2018-02-01T20:37:16.326Z,4.73
2018-02-01T20:40:03.698Z,5.03
2018-02-01T20:42:51.115Z,5.90
2018-02-01T20:45:38.524Z,4.97
2018-02-01T20:48:25.829Z,5.70
2018-02-01T20:51:13.167Z,5.73
2018-02-01T20:54:01.538Z,4.23
2018-02-01T21:13:14.701Z,5.50
2018-02-01T21:38:53.262Z,6.57
2018-02-01T21:41:40.816Z,6.10
2018-02-01T22:00:48.671Z,4.95
2018-02-01T22:03:35.852Z,5.23
2018-02-01T22:06:23.250Z,5.23
2018-02-01T22:09:11.382Z,5.63
2018-02-01T22:11:58.582Z,5.30
2018-02-01T22:14:46.815Z,5.82
2018-02-01T22:33:54.118Z,5.57
2018-02-01T22:36:41.511Z,5.50
2018-02-01T22:39:30.014Z,5.97
2018-02-01T23:05:07.654Z,5.40
2018-02-01T23:07:54.764Z,6.37
2018-02-01T23:10:42.201Z,6.00
2018-02-01T23:13:29.264Z,4.97
2018-02-01T23:16:16.573Z,5.07
2018-02-01T23:19:04.124Z,5.40
2018-02-01T23:21:51.336Z,5.33
2018-02-01T23:24:39.241Z,5.37
2018-02-01T23:27:26.566Z,5.50
2018-02-01T23:30:15.458Z,5.40
2018-02-01T23:52:37.860Z,5.37
2018-02-01T23:55:25.123Z,6.07
